Time;durP1;ratioP1;P1;durP2;ratioP2;P2;SDS_P1;SDS_P2;PMS_P1;PMS_P2;Temp;Humidity;BMP_temperature;BMP_pressure;BME280_temperature;BME280_humidity;BME280_pressure;Samples;Min_cycle;Max_cycle;Signal;HPM_P1;HPM_P2
2022/05/17 00:00:39;;;;;;;4.87;1.85;;;;;;;;;;4406138;32;20073;-72
2022/05/17 00:03:06;;;;;;;3.83;1.73;;;;;;;;;;4419396;32;20073;-71
2022/05/17 00:05:32;;;;;;;2.15;1.65;;;;;;;;;;4405679;32;20099;-71
2022/05/17 00:07:59;;;;;;;3.87;1.70;;;;;;;;;;4419206;32;20089;-71
2022/05/17 00:10:26;;;;;;;3.35;1.80;;;;;;;;;;4405257;32;20115;-71
2022/05/17 00:12:57;;;;;;;2.80;1.75;;;;;;;;;;4405587;32;20095;-70
2022/05/17 00:15:24;;;;;;;2.90;1.60;;;;;;;;;;4418231;32;20089;-71
2022/05/17 00:17:51;;;;;;;1.70;1.60;;;;;;;;;;4418991;32;20491;-71
2022/05/17 00:20:18;;;;;;;2.78;1.85;;;;;;;;;;4417982;32;20082;-71
2022/05/17 00:22:45;;;;;;;2.00;1.60;;;;;;;;;;4417675;32;20157;-70
2022/05/17 00:25:14;;;;;;;1.70;1.60;;;;;;;;;;4418503;32;20099;-71
2022/05/17 00:27:40;;;;;;;2.05;1.70;;;;;;;;;;4419962;32;20572;-71
2022/05/17 00:30:09;;;;;;;1.50;1.40;;;;;;;;;;4407662;32;20523;-71
2022/05/17 00:32:36;;;;;;;2.40;1.70;;;;;;;;;;4407246;32;20084;-71
2022/05/17 00:35:03;;;;;;;1.92;1.50;;;;;;;;;;4394906;32;20162;-70
2022/05/17 00:37:30;;;;;;;2.17;1.70;;;;;;;;;;4408575;32;20081;-71
2022/05/17 00:39:56;;;;;;;2.05;1.85;;;;;;;;;;4408670;32;20164;-71
2022/05/17 00:42:23;;;;;;;2.15;1.77;;;;;;;;;;4408761;32;20524;-72
2022/05/17 00:44:50;;;;;;;2.90;2.10;;;;;;;;;;4407435;32;20069;-71
2022/05/17 00:47:24;;;;;;;1.95;1.65;;;;;;;;;;4406638;32;20575;-71
2022/05/17 00:49:50;;;;;;;1.95;1.75;;;;;;;;;;4406713;32;20177;-71
2022/05/17 00:52:22;;;;;;;3.15;1.77;;;;;;;;;;4408721;32;20093;-71
2022/05/17 00:54:50;;;;;;;3.15;1.70;;;;;;;;;;4406989;32;20086;-71
2022/05/17 00:58:01;;;;;;;3.00;1.87;;;;;;;;;;4406821;32;20097;-70
2022/05/17 01:00:30;;;;;;;2.08;1.70;;;;;;;;;;4395089;32;20116;-70
2022/05/17 01:03:07;;;;;;;2.45;1.60;;;;;;;;;;4408172;32;20078;-71
2022/05/17 01:05:44;;;;;;;2.83;1.98;;;;;;;;;;4407198;32;20077;-71
2022/05/17 01:08:13;;;;;;;2.90;1.80;;;;;;;;;;4394816;32;20140;-70
2022/05/17 01:10:40;;;;;;;4.07;1.92;;;;;;;;;;4406395;32;20082;-71
2022/05/17 01:15:53;;;;;;;2.53;1.80;;;;;;;;;;4407038;32;20516;-71
2022/05/17 01:18:20;;;;;;;2.58;1.90;;;;;;;;;;4380616;32;20638;-71
2022/05/17 01:20:46;;;;;;;2.78;2.00;;;;;;;;;;4406835;32;20129;-71
2022/05/17 01:23:13;;;;;;;2.40;2.15;;;;;;;;;;4393760;32;20088;-71
2022/05/17 01:25:44;;;;;;;2.33;1.90;;;;;;;;;;4393711;32;20505;-70
2022/05/17 01:28:18;;;;;;;2.10;1.90;;;;;;;;;;4407255;32;20504;-70
2022/05/17 01:30:46;;;;;;;2.20;1.80;;;;;;;;;;4393922;32;20061;-70
2022/05/17 01:33:14;;;;;;;2.45;1.90;;;;;;;;;;4393743;32;20097;-71
2022/05/17 01:38:20;;;;;;;2.50;2.00;;;;;;;;;;3857411;37;20081;-70
2022/05/17 01:40:47;;;;;;;2.45;1.85;;;;;;;;;;4420359;32;20091;-71
2022/05/17 01:43:14;;;;;;;3.22;2.17;;;;;;;;;;4405460;32;20137;-72
2022/05/17 01:45:41;;;;;;;3.97;2.40;;;;;;;;;;4419935;32;20077;-71
2022/05/17 01:48:07;;;;;;;3.55;2.35;;;;;;;;;;4418438;32;20077;-70
2022/05/17 01:50:34;;;;;;;4.18;2.08;;;;;;;;;;4418345;32;20444;-71
2022/05/17 01:53:01;;;;;;;2.22;1.95;;;;;;;;;;4405830;32;20181;-70
2022/05/17 01:55:28;;;;;;;2.20;2.00;;;;;;;;;;4418336;32;20442;-70
2022/05/17 01:57:54;;;;;;;2.85;2.20;;;;;;;;;;4405404;32;20081;-70
2022/05/17 02:00:23;;;;;;;3.45;1.65;;;;;;;;;;4405891;32;20145;-70
2022/05/17 02:02:50;;;;;;;2.28;1.80;;;;;;;;;;4405117;32;20069;-71
2022/05/17 02:05:19;;;;;;;1.92;1.50;;;;;;;;;;4418126;32;20068;-71
2022/05/17 02:07:45;;;;;;;2.83;1.80;;;;;;;;;;4405310;32;20081;-71
2022/05/17 02:10:13;;;;;;;3.10;1.80;;;;;;;;;;4418707;32;20083;-71
2022/05/17 02:12:40;;;;;;;4.65;1.85;;;;;;;;;;4392496;32;20084;-70
2022/05/17 02:15:08;;;;;;;4.82;2.25;;;;;;;;;;4417855;32;20160;-70
2022/05/17 02:17:38;;;;;;;3.25;1.85;;;;;;;;;;4405200;32;20583;-72
2022/05/17 02:20:06;;;;;;;2.12;1.62;;;;;;;;;;4419447;32;20076;-70
2022/05/17 02:22:33;;;;;;;2.20;1.70;;;;;;;;;;4405371;32;20156;-71
2022/05/17 02:25:00;;;;;;;2.42;1.70;;;;;;;;;;4419370;32;20084;-70
2022/05/17 02:27:26;;;;;;;2.50;1.60;;;;;;;;;;4417845;32;20089;-71
2022/05/17 02:29:53;;;;;;;1.98;1.33;;;;;;;;;;4419094;32;20100;-71
2022/05/17 02:32:20;;;;;;;1.73;1.50;;;;;;;;;;4419434;32;20089;-71
2022/05/17 02:34:47;;;;;;;2.53;1.70;;;;;;;;;;4405094;32;20153;-70
2022/05/17 02:37:15;;;;;;;1.80;1.52;;;;;;;;;;4404508;32;20127;-71
2022/05/17 02:39:43;;;;;;;2.35;1.67;;;;;;;;;;4417625;32;20074;-70
2022/05/17 02:42:10;;;;;;;1.83;1.67;;;;;;;;;;4404990;32;20074;-71
2022/05/17 02:44:37;;;;;;;2.80;1.73;;;;;;;;;;4404941;32;20077;-71
2022/05/17 02:47:05;;;;;;;4.80;2.33;;;;;;;;;;4417732;32;20104;-71
2022/05/17 02:49:32;;;;;;;6.97;2.30;;;;;;;;;;4409611;32;20073;-71
2022/05/17 02:52:04;;;;;;;4.55;2.37;;;;;;;;;;4408920;32;20445;-71
2022/05/17 02:54:31;;;;;;;3.45;1.90;;;;;;;;;;4407241;32;20148;-71
2022/05/17 02:56:57;;;;;;;3.97;2.00;;;;;;;;;;4408498;32;20161;-70
2022/05/17 02:59:24;;;;;;;3.67;2.15;;;;;;;;;;4406678;32;20577;-70
2022/05/17 03:01:51;;;;;;;3.53;2.47;;;;;;;;;;4408873;32;20070;-70
2022/05/17 03:04:18;;;;;;;3.20;2.00;;;;;;;;;;4394202;32;20544;-71
2022/05/17 03:06:45;;;;;;;2.85;2.12;;;;;;;;;;4406957;32;20153;-71
2022/05/17 03:09:13;;;;;;;3.67;2.10;;;;;;;;;;4407003;32;20085;-70
2022/05/17 03:11:44;;;;;;;2.60;2.25;;;;;;;;;;4409471;32;20092;-70
2022/05/17 03:14:12;;;;;;;3.85;2.33;;;;;;;;;;4407682;32;20073;-71
2022/05/17 03:16:39;;;;;;;6.47;2.22;;;;;;;;;;4407192;32;20521;-70
2022/05/17 03:19:06;;;;;;;3.75;2.20;;;;;;;;;;4407019;32;20515;-70
2022/05/17 03:21:33;;;;;;;4.12;2.72;;;;;;;;;;4406675;32;20074;-70
2022/05/17 03:24:00;;;;;;;3.15;2.22;;;;;;;;;;4406641;32;20125;-71
2022/05/17 03:26:28;;;;;;;3.78;2.40;;;;;;;;;;4407304;32;20073;-71
2022/05/17 03:28:59;;;;;;;2.70;1.95;;;;;;;;;;4408215;32;20082;-70
2022/05/17 03:31:26;;;;;;;3.42;2.50;;;;;;;;;;4406737;32;20535;-70
2022/05/17 03:33:53;;;;;;;3.80;2.00;;;;;;;;;;4406674;32;20088;-70
2022/05/17 03:36:20;;;;;;;5.43;2.42;;;;;;;;;;4405989;32;20088;-71
2022/05/17 03:38:46;;;;;;;5.45;2.83;;;;;;;;;;4381579;32;20154;-70
2022/05/17 03:41:14;;;;;;;4.35;2.72;;;;;;;;;;4408109;32;20073;-71
2022/05/17 03:43:40;;;;;;;2.70;2.22;;;;;;;;;;4393861;32;20166;-70
2022/05/17 03:46:08;;;;;;;4.35;2.70;;;;;;;;;;4393937;32;20496;-71
2022/05/17 03:48:35;;;;;;;4.03;2.45;;;;;;;;;;4394202;32;20065;-71
2022/05/17 03:51:09;;;;;;;4.15;2.58;;;;;;;;;;4393632;32;20093;-71
2022/05/17 03:53:36;;;;;;;2.92;1.90;;;;;;;;;;4407615;32;20148;-71
2022/05/17 03:56:03;;;;;;;3.58;2.28;;;;;;;;;;4406590;32;20089;-70
2022/05/17 03:58:30;;;;;;;5.47;3.00;;;;;;;;;;4407941;32;20499;-70
2022/05/17 04:00:57;;;;;;;4.85;2.37;;;;;;;;;;4392852;32;20169;-70
2022/05/17 04:03:24;;;;;;;3.65;2.50;;;;;;;;;;4407567;32;20592;-71
2022/05/17 04:05:51;;;;;;;3.70;2.40;;;;;;;;;;4393429;32;20209;-71
2022/05/17 04:08:17;;;;;;;2.85;2.35;;;;;;;;;;4407869;32;20164;-71
2022/05/17 04:10:44;;;;;;;2.90;2.30;;;;;;;;;;4406105;32;20077;-70
2022/05/17 04:13:11;;;;;;;3.53;2.87;;;;;;;;;;4407431;32;20073;-71
2022/05/17 04:15:37;;;;;;;3.15;2.20;;;;;;;;;;4407355;32;20158;-70
2022/05/17 04:18:04;;;;;;;2.40;2.10;;;;;;;;;;4407304;32;20065;-70
2022/05/17 04:20:31;;;;;;;2.85;2.10;;;;;;;;;;4407862;32;20149;-71
2022/05/17 04:22:58;;;;;;;2.28;1.90;;;;;;;;;;4393565;32;20076;-71
2022/05/17 04:25:26;;;;;;;3.40;2.35;;;;;;;;;;4407454;32;20085;-71
2022/05/17 04:27:53;;;;;;;4.53;2.33;;;;;;;;;;4393330;32;20085;-70
2022/05/17 04:30:20;;;;;;;2.25;2.00;;;;;;;;;;4393186;32;20158;-70
2022/05/17 04:32:47;;;;;;;2.22;1.55;;;;;;;;;;4405630;32;20156;-71
2022/05/17 04:35:15;;;;;;;3.30;2.33;;;;;;;;;;4405755;32;20077;-71
2022/05/17 04:37:42;;;;;;;3.00;2.10;;;;;;;;;;4406078;32;20082;-70
2022/05/17 04:40:11;;;;;;;2.03;1.80;;;;;;;;;;4406933;32;20074;-70
2022/05/17 04:42:39;;;;;;;2.60;1.70;;;;;;;;;;4393157;32;20080;-71
2022/05/17 04:45:07;;;;;;;2.00;1.52;;;;;;;;;;4393454;32;20076;-70
2022/05/17 04:47:33;;;;;;;3.50;1.73;;;;;;;;;;4405474;32;20148;-70
2022/05/17 04:50:00;;;;;;;1.73;1.30;;;;;;;;;;4405758;32;20072;-70
2022/05/17 04:52:27;;;;;;;2.67;2.00;;;;;;;;;;4405627;32;20065;-71
2022/05/17 04:54:53;;;;;;;2.87;1.35;;;;;;;;;;4406964;32;20088;-70
2022/05/17 04:57:20;;;;;;;2.75;1.92;;;;;;;;;;4406795;32;20164;-70
2022/05/17 04:59:47;;;;;;;2.70;2.20;;;;;;;;;;4405768;32;20089;-70
2022/05/17 05:02:14;;;;;;;1.65;1.50;;;;;;;;;;4393491;32;20070;-70
2022/05/17 05:04:41;;;;;;;2.78;1.23;;;;;;;;;;4406079;32;20082;-70
2022/05/17 05:07:08;;;;;;;1.52;1.42;;;;;;;;;;4405223;32;20141;-70
2022/05/17 05:09:35;;;;;;;1.50;1.40;;;;;;;;;;4392477;32;20169;-69
2022/05/17 05:12:03;;;;;;;5.07;2.00;;;;;;;;;;4392499;32;20108;-71
2022/05/17 05:14:30;;;;;;;3.75;1.80;;;;;;;;;;4405056;32;20099;-71
2022/05/17 05:16:57;;;;;;;1.55;1.42;;;;;;;;;;4392770;32;20070;-70
2022/05/17 05:19:24;;;;;;;3.17;1.62;;;;;;;;;;4380617;32;20084;-70
2022/05/17 05:21:51;;;;;;;1.35;1.25;;;;;;;;;;4405369;32;20069;-71
2022/05/17 05:24:17;;;;;;;1.25;1.15;;;;;;;;;;4406555;32;20525;-70
2022/05/17 05:26:44;;;;;;;1.98;1.60;;;;;;;;;;4406636;32;20101;-71
2022/05/17 05:29:10;;;;;;;2.40;1.60;;;;;;;;;;4392536;32;20084;-72
2022/05/17 05:31:37;;;;;;;1.92;1.17;;;;;;;;;;4404962;32;20080;-70
2022/05/17 05:34:04;;;;;;;1.98;1.40;;;;;;;;;;4406388;32;20081;-70
2022/05/17 05:36:30;;;;;;;1.95;1.42;;;;;;;;;;4406092;32;20168;-70
2022/05/17 05:38:57;;;;;;;1.65;1.40;;;;;;;;;;4406448;32;20078;-69
2022/05/17 05:41:24;;;;;;;1.40;1.30;;;;;;;;;;4406431;32;20085;-69
2022/05/17 05:43:51;;;;;;;2.95;1.90;;;;;;;;;;4392610;32;20074;-71
2022/05/17 05:46:17;;;;;;;1.87;1.52;;;;;;;;;;4392513;32;20445;-70
2022/05/17 05:48:44;;;;;;;2.05;1.60;;;;;;;;;;4405854;32;20152;-69
2022/05/17 05:51:11;;;;;;;1.83;1.42;;;;;;;;;;4406344;32;20496;-72
2022/05/17 05:53:38;;;;;;;1.60;1.50;;;;;;;;;;4405012;32;20514;-70
2022/05/17 05:56:05;;;;;;;2.37;1.48;;;;;;;;;;4392323;32;20088;-69
2022/05/17 05:58:37;;;;;;;2.47;1.73;;;;;;;;;;4404909;32;20097;-71
2022/05/17 06:01:04;;;;;;;2.28;1.50;;;;;;;;;;4407077;32;20085;-73
2022/05/17 06:03:32;;;;;;;2.28;1.95;;;;;;;;;;4392709;32;20066;-73
2022/05/17 06:05:58;;;;;;;1.83;1.58;;;;;;;;;;4405395;32;20165;-71
2022/05/17 06:08:25;;;;;;;3.08;2.08;;;;;;;;;;4392540;32;20073;-72
2022/05/17 06:10:52;;;;;;;1.65;1.30;;;;;;;;;;4379231;32;20576;-71
2022/05/17 06:13:18;;;;;;;4.70;1.40;;;;;;;;;;4404910;32;20094;-71
2022/05/17 06:15:46;;;;;;;2.22;1.10;;;;;;;;;;4404761;32;20149;-71
2022/05/17 06:18:14;;;;;;;1.70;1.10;;;;;;;;;;4405182;32;20085;-71
2022/05/17 06:20:41;;;;;;;2.20;1.65;;;;;;;;;;4404651;32;20162;-71
2022/05/17 06:23:08;;;;;;;1.42;1.33;;;;;;;;;;4404863;32;20529;-71
2022/05/17 06:25:35;;;;;;;3.85;1.52;;;;;;;;;;4407902;32;20131;-71
2022/05/17 06:28:02;;;;;;;1.55;1.40;;;;;;;;;;4408049;32;20081;-71
2022/05/17 06:30:42;;;;;;;1.48;1.33;;;;;;;;;;3832331;37;20043;-73
2022/05/17 06:33:10;;;;;;;2.90;1.60;;;;;;;;;;4378597;32;20088;-70
2022/05/17 06:35:39;;;;;;;2.53;1.60;;;;;;;;;;4365684;32;20084;-69
2022/05/17 06:38:06;;;;;;;3.37;1.30;;;;;;;;;;4391188;32;20601;-70
2022/05/17 06:40:33;;;;;;;1.00;0.93;;;;;;;;;;4405007;32;20530;-72
2022/05/17 06:43:00;;;;;;;1.35;1.20;;;;;;;;;;4391327;32;20173;-72
2022/05/17 06:45:27;;;;;;;1.42;1.33;;;;;;;;;;4404755;32;20089;-72
2022/05/17 06:47:54;;;;;;;2.30;1.40;;;;;;;;;;4365239;32;20531;-71
2022/05/17 06:50:20;;;;;;;2.17;1.50;;;;;;;;;;4390059;32;20065;-72
2022/05/17 06:52:47;;;;;;;3.92;1.50;;;;;;;;;;4404271;32;20097;-70
2022/05/17 06:55:14;;;;;;;1.60;1.12;;;;;;;;;;4377671;32;20128;-71
2022/05/17 06:57:42;;;;;;;3.55;1.30;;;;;;;;;;4377818;32;20155;-71
2022/05/17 07:00:11;;;;;;;1.98;1.48;;;;;;;;;;4365400;32;20170;-70
2022/05/17 07:02:39;;;;;;;1.20;1.10;;;;;;;;;;4377411;32;20524;-72
2022/05/17 07:05:06;;;;;;;1.58;1.25;;;;;;;;;;4378360;32;20073;-74
2022/05/17 07:07:33;;;;;;;2.97;1.40;;;;;;;;;;4377481;32;20081;-73
2022/05/17 07:15:30;;;;;;;1.45;1.17;;;;;;;;;;4404457;32;20090;-71
2022/05/17 07:18:03;;;;;;;2.50;1.30;;;;;;;;;;4404044;32;20069;-72
2022/05/17 07:20:30;;;;;;;1.73;1.30;;;;;;;;;;4403910;32;20066;-70
2022/05/17 07:22:57;;;;;;;3.03;1.40;;;;;;;;;;4390462;32;20085;-71
2022/05/17 07:25:23;;;;;;;2.10;1.62;;;;;;;;;;4378557;32;20158;-77
2022/05/17 07:27:50;;;;;;;1.40;1.30;;;;;;;;;;4392697;32;20169;-74
2022/05/17 07:30:17;;;;;;;2.75;1.48;;;;;;;;;;4390330;32;20069;-71
2022/05/17 07:32:45;;;;;;;2.35;1.58;;;;;;;;;;4378442;32;20103;-73
2022/05/17 07:35:12;;;;;;;1.42;1.27;;;;;;;;;;4404013;32;20070;-73
2022/05/17 07:37:40;;;;;;;0.60;0.47;;;;;;;;;;4390506;32;20073;-74
2022/05/17 07:40:07;;;;;;;1.73;1.20;;;;;;;;;;4375401;32;20077;-73
2022/05/17 07:42:34;;;;;;;1.70;1.30;;;;;;;;;;4368950;32;20629;-75
2022/05/17 07:45:00;;;;;;;1.20;1.10;;;;;;;;;;4369316;32;20150;-75
2022/05/17 07:47:29;;;;;;;4.43;1.73;;;;;;;;;;4395680;32;20173;-75
2022/05/17 07:49:56;;;;;;;1.67;1.48;;;;;;;;;;4381082;32;20086;-74
2022/05/17 07:52:23;;;;;;;2.17;1.35;;;;;;;;;;4380034;32;20070;-74
2022/05/17 07:54:49;;;;;;;2.10;1.50;;;;;;;;;;4379291;32;20108;-76
2022/05/17 07:57:16;;;;;;;2.42;1.40;;;;;;;;;;4367470;32;20157;-75
2022/05/17 07:59:43;;;;;;;4.72;1.35;;;;;;;;;;4380005;32;20069;-75
2022/05/17 08:02:10;;;;;;;2.90;1.42;;;;;;;;;;4393396;32;20169;-74
2022/05/17 08:04:36;;;;;;;2.70;1.77;;;;;;;;;;4379560;32;20085;-72
2022/05/17 08:07:03;;;;;;;4.05;1.80;;;;;;;;;;4367234;32;20164;-73
2022/05/17 08:09:30;;;;;;;2.12;1.52;;;;;;;;;;4378857;32;20516;-72
2022/05/17 08:11:57;;;;;;;1.50;1.40;;;;;;;;;;4392844;32;20172;-73
2022/05/17 08:14:23;;;;;;;3.87;1.50;;;;;;;;;;4379102;32;20595;-73
2022/05/17 08:16:50;;;;;;;3.90;1.83;;;;;;;;;;4379048;32;20081;-74
2022/05/17 08:19:17;;;;;;;2.72;1.48;;;;;;;;;;4367327;32;20073;-74
2022/05/17 08:21:44;;;;;;;4.07;1.42;;;;;;;;;;4366642;32;20493;-73
2022/05/17 08:24:11;;;;;;;1.62;1.27;;;;;;;;;;4378928;32;20148;-73
2022/05/17 08:29:23;;;;;;;3.10;1.48;;;;;;;;;;4380928;32;20077;-74
2022/05/17 08:34:35;;;;;;;2.47;1.52;;;;;;;;;;4381305;32;20523;-73
2022/05/17 08:37:02;;;;;;;3.08;1.30;;;;;;;;;;4354058;32;20157;-74
2022/05/17 08:39:28;;;;;;;1.55;1.33;;;;;;;;;;4366231;32;20089;-74
2022/05/17 08:42:14;;;;;;;2.87;1.42;;;;;;;;;;4366010;32;20463;-73
2022/05/17 08:44:50;;;;;;;2.10;1.42;;;;;;;;;;4366166;32;20077;-75
2022/05/17 08:47:37;;;;;;;3.90;1.35;;;;;;;;;;4366236;32;20073;-73
2022/05/17 08:50:07;;;;;;;1.40;1.25;;;;;;;;;;4366352;32;20129;-74
2022/05/17 08:52:38;;;;;;;5.90;1.92;;;;;;;;;;4365182;32;20538;-74
2022/05/17 08:55:27;;;;;;;2.30;1.65;;;;;;;;;;4379080;32;20074;-74
2022/05/17 08:58:03;;;;;;;3.08;1.65;;;;;;;;;;4366361;32;20121;-73
2022/05/17 09:00:32;;;;;;;4.10;1.70;;;;;;;;;;4378757;32;20568;-73
2022/05/17 09:03:02;;;;;;;4.85;1.62;;;;;;;;;;4353389;32;20081;-72
2022/05/17 09:05:46;;;;;;;2.05;1.42;;;;;;;;;;4378276;32;20155;-74
2022/05/17 09:08:25;;;;;;;2.45;1.60;;;;;;;;;;4377945;32;20592;-73
2022/05/17 09:11:02;;;;;;;2.60;1.20;;;;;;;;;;4378504;32;20096;-73
2022/05/17 09:13:54;;;;;;;3.78;1.35;;;;;;;;;;4365751;32;20092;-74
2022/05/17 09:16:23;;;;;;;1.20;1.02;;;;;;;;;;4365928;32;20081;-73
2022/05/17 09:18:51;;;;;;;1.20;1.10;;;;;;;;;;4366103;32;20074;-73
2022/05/17 09:21:38;;;;;;;2.00;1.40;;;;;;;;;;4365832;32;20596;-73
2022/05/17 09:24:14;;;;;;;2.87;1.45;;;;;;;;;;4392376;32;20156;-73
2022/05/17 09:26:45;;;;;;;2.62;1.50;;;;;;;;;;4378440;32;20074;-73
2022/05/17 09:29:21;;;;;;;2.08;1.05;;;;;;;;;;4352800;32;20097;-73
2022/05/17 09:31:53;;;;;;;1.60;1.30;;;;;;;;;;4365395;32;20463;-73
2022/05/17 09:34:39;;;;;;;1.15;1.05;;;;;;;;;;4365898;32;20172;-74
2022/05/17 09:37:10;;;;;;;2.10;1.30;;;;;;;;;;4353069;32;20066;-74
2022/05/17 09:39:37;;;;;;;1.87;1.30;;;;;;;;;;4353348;32;20094;-74
2022/05/17 09:42:07;;;;;;;3.10;1.37;;;;;;;;;;4365732;32;20512;-73
2022/05/17 09:44:34;;;;;;;1.65;1.10;;;;;;;;;;4377616;32;20073;-74
2022/05/17 09:47:05;;;;;;;1.92;1.20;;;;;;;;;;4365074;32;20065;-73
2022/05/17 09:52:45;;;;;;;0.80;0.80;;;;;;;;;;4380602;32;20074;-73
2022/05/17 09:55:27;;;;;;;2.58;1.27;;;;;;;;;;4379805;32;20508;-74
2022/05/17 09:58:25;;;;;;;1.35;1.00;;;;;;;;;;4364880;32;20101;-74
2022/05/17 10:00:54;;;;;;;0.73;0.73;;;;;;;;;;4367616;32;20153;-73
2022/05/17 10:03:34;;;;;;;1.98;1.20;;;;;;;;;;4365101;32;20565;-74
2022/05/17 10:06:16;;;;;;;1.02;0.85;;;;;;;;;;4365094;32;20077;-74
2022/05/17 10:09:03;;;;;;;3.05;1.05;;;;;;;;;;4377307;32;20086;-74
2022/05/17 10:11:52;;;;;;;1.58;1.08;;;;;;;;;;4391968;32;20146;-73
2022/05/17 10:14:40;;;;;;;3.05;1.20;;;;;;;;;;4365385;32;20070;-74
2022/05/17 10:17:14;;;;;;;2.55;0.98;;;;;;;;;;4377765;32;20077;-73
2022/05/17 10:20:05;;;;;;;1.58;0.90;;;;;;;;;;4365305;32;20164;-73
2022/05/17 10:22:58;;;;;;;2.20;0.93;;;;;;;;;;4364763;32;20082;-74
2022/05/17 10:25:34;;;;;;;1.37;1.10;;;;;;;;;;4369124;32;20082;-74
2022/05/17 10:28:30;;;;;;;1.30;0.75;;;;;;;;;;4352094;32;20472;-73
2022/05/17 10:31:35;;;;;;;2.35;1.35;;;;;;;;;;4364902;32;20093;-73
2022/05/17 10:34:21;;;;;;;1.10;1.00;;;;;;;;;;4375477;32;20078;-74
2022/05/17 10:36:51;;;;;;;2.28;1.17;;;;;;;;;;4377225;32;20449;-73
2022/05/17 10:39:19;;;;;;;2.85;1.45;;;;;;;;;;4377518;32;20174;-74
2022/05/17 10:41:46;;;;;;;1.90;1.23;;;;;;;;;;4365248;32;20504;-74
2022/05/17 10:44:16;;;;;;;1.00;0.90;;;;;;;;;;4377306;32;20509;-74
2022/05/17 10:46:48;;;;;;;2.22;1.10;;;;;;;;;;4352316;32;20575;-74
2022/05/17 10:50:01;;;;;;;1.58;0.88;;;;;;;;;;4378194;32;20514;-74
2022/05/17 10:52:34;;;;;;;1.95;1.15;;;;;;;;;;4391294;32;20074;-73
2022/05/17 10:55:22;;;;;;;1.67;1.15;;;;;;;;;;4377315;32;20070;-74
2022/05/17 10:58:00;;;;;;;1.50;0.80;;;;;;;;;;4391298;32;20085;-74
2022/05/17 11:00:44;;;;;;;3.05;0.90;;;;;;;;;;4364643;32;20100;-73
2022/05/17 11:03:42;;;;;;;1.12;0.60;;;;;;;;;;4365565;32;20070;-72
2022/05/17 11:06:25;;;;;;;1.02;0.75;;;;;;;;;;4391409;32;20073;-74
2022/05/17 11:09:02;;;;;;;3.03;0.90;;;;;;;;;;4353601;32;20153;-74
2022/05/17 11:11:31;;;;;;;;;;;;;;;;;;4377988;32;20085;-75
2022/05/17 11:14:03;;;;;;;0.68;0.60;;;;;;;;;;4377432;32;20038;-74
2022/05/17 11:16:42;;;;;;;0.52;0.47;;;;;;;;;;4354269;32;20086;-74
2022/05/17 11:19:23;;;;;;;1.65;0.65;;;;;;;;;;4367492;32;20085;-75
2022/05/17 11:21:55;;;;;;;1.10;0.98;;;;;;;;;;4367376;32;20141;-74
2022/05/17 11:24:43;;;;;;;4.20;0.85;;;;;;;;;;4367590;32;20463;-74
2022/05/17 11:27:10;;;;;;;1.90;1.10;;;;;;;;;;4367314;32;20463;-74
2022/05/17 11:29:49;;;;;;;0.80;0.80;;;;;;;;;;4379663;32;20062;-74
2022/05/17 11:32:28;;;;;;;1.25;0.82;;;;;;;;;;4393728;32;20070;-74
2022/05/17 11:34:56;;;;;;;0.57;0.57;;;;;;;;;;4379629;32;20531;-73
2022/05/17 11:37:37;;;;;;;3.33;0.90;;;;;;;;;;4367360;32;20077;-74
2022/05/17 11:40:07;;;;;;;1.10;0.60;;;;;;;;;;4394203;32;20089;-73
2022/05/17 11:45:53;;;;;;;0.57;0.50;;;;;;;;;;4376011;32;20160;-73
2022/05/17 11:48:43;;;;;;;0.57;0.50;;;;;;;;;;4367635;32;20074;-73
2022/05/17 11:51:10;;;;;;;0.62;0.55;;;;;;;;;;4379222;32;20076;-74
2022/05/17 11:53:48;;;;;;;0.98;0.73;;;;;;;;;;4354608;32;20159;-74
2022/05/17 11:56:28;;;;;;;0.70;0.60;;;;;;;;;;4379403;32;20081;-74
2022/05/17 11:58:55;;;;;;;1.58;0.90;;;;;;;;;;4393967;32;20077;-75
2022/05/17 12:01:31;;;;;;;0.88;0.77;;;;;;;;;;4393325;32;20081;-74
2022/05/17 12:04:00;;;;;;;0.77;0.77;;;;;;;;;;4393413;32;20073;-74
2022/05/17 12:06:51;;;;;;;0.77;0.70;;;;;;;;;;4379644;32;20506;-74
2022/05/17 12:09:27;;;;;;;2.08;1.25;;;;;;;;;;4379486;32;20074;-74
2022/05/17 12:12:47;;;;;;;0.90;0.57;;;;;;;;;;4393520;32;20585;-74
2022/05/17 12:15:29;;;;;;;1.70;0.75;;;;;;;;;;4291965;33;20071;-74
2022/05/17 12:18:04;;;;;;;2.12;0.70;;;;;;;;;;4317126;33;20063;-74
2022/05/17 12:20:48;;;;;;;2.75;0.90;;;;;;;;;;4373502;32;20089;-73
2022/05/17 12:23:24;;;;;;;1.60;1.10;;;;;;;;;;4366868;32;20082;-74
2022/05/17 12:25:58;;;;;;;0.88;0.50;;;;;;;;;;4392761;32;20062;-74
2022/05/17 12:28:32;;;;;;;3.28;0.75;;;;;;;;;;4379116;32;20081;-74
2022/05/17 12:31:02;;;;;;;1.70;0.60;;;;;;;;;;4366328;32;20532;-73
2022/05/17 12:33:37;;;;;;;2.17;0.80;;;;;;;;;;4393025;32;20506;-74
2022/05/17 12:36:30;;;;;;;1.85;0.45;;;;;;;;;;4366279;32;20528;-74
2022/05/17 12:44:54;;;;;;;0.62;0.62;;;;;;;;;;4368036;32;20577;-73
2022/05/17 12:47:35;;;;;;;0.80;0.60;;;;;;;;;;4378591;32;20085;-73
2022/05/17 12:50:01;;;;;;;2.62;0.60;;;;;;;;;;4354013;32;20163;-75
2022/05/17 12:52:32;;;;;;;1.05;0.77;;;;;;;;;;4378981;32;20095;-74
2022/05/17 12:55:12;;;;;;;3.28;0.85;;;;;;;;;;4366195;32;20070;-74
2022/05/17 12:57:39;;;;;;;1.70;0.62;;;;;;;;;;4366457;32;20104;-73
2022/05/17 13:00:19;;;;;;;1.52;0.60;;;;;;;;;;4367282;32;20101;-74
2022/05/17 13:02:49;;;;;;;1.17;0.70;;;;;;;;;;4380506;32;20078;-75
2022/05/17 13:05:28;;;;;;;1.60;0.65;;;;;;;;;;4367323;32;20070;-73
2022/05/17 13:08:08;;;;;;;1.02;0.50;;;;;;;;;;4380061;32;20109;-73
2022/05/17 13:10:37;;;;;;;1.52;0.65;;;;;;;;;;4392541;32;20176;-75
2022/05/17 13:13:21;;;;;;;0.90;0.60;;;;;;;;;;4378717;32;20075;-75
2022/05/17 13:16:03;;;;;;;3.33;0.80;;;;;;;;;;4353624;32;20527;-73
2022/05/17 13:18:45;;;;;;;0.55;0.43;;;;;;;;;;4378641;32;20461;-74
2022/05/17 13:21:36;;;;;;;1.42;0.90;;;;;;;;;;4365861;32;20150;-74
2022/05/17 13:24:31;;;;;;;0.30;0.30;;;;;;;;;;4353382;32;20513;-74
2022/05/17 13:27:00;;;;;;;0.80;0.52;;;;;;;;;;4368430;32;20174;-74
2022/05/17 13:29:29;;;;;;;2.20;0.62;;;;;;;;;;4364994;32;20093;-74
2022/05/17 13:32:05;;;;;;;1.00;0.70;;;;;;;;;;4365479;32;20074;-74
2022/05/17 13:34:40;;;;;;;3.10;0.67;;;;;;;;;;4365023;32;20580;-74
2022/05/17 13:37:11;;;;;;;0.82;0.60;;;;;;;;;;4365496;32;20239;-75
2022/05/17 13:39:53;;;;;;;2.05;0.70;;;;;;;;;;4391346;32;20152;-74
2022/05/17 13:42:29;;;;;;;4.20;1.15;;;;;;;;;;4378138;32;20073;-74
2022/05/17 13:45:26;;;;;;;1.60;0.65;;;;;;;;;;4377733;32;20107;-74
2022/05/17 13:47:55;;;;;;;1.70;0.50;;;;;;;;;;4378296;32;20144;-74
2022/05/17 13:50:26;;;;;;;1.42;0.88;;;;;;;;;;4377722;32;20089;-74
2022/05/17 13:53:00;;;;;;;0.60;0.40;;;;;;;;;;4377773;32;20077;-73
2022/05/17 13:55:35;;;;;;;1.75;0.40;;;;;;;;;;4378133;32;20583;-75
2022/05/17 13:58:07;;;;;;;0.90;0.70;;;;;;;;;;4392131;32;20074;-75
2022/05/17 14:00:53;;;;;;;1.85;0.52;;;;;;;;;;4391601;32;20088;-75
2022/05/17 14:03:22;;;;;;;0.70;0.70;;;;;;;;;;4377695;32;20165;-74
2022/05/17 14:05:51;;;;;;;1.45;0.80;;;;;;;;;;4377717;32;20245;-74
2022/05/17 14:14:09;;;;;;;1.75;0.70;;;;;;;;;;4391450;32;20081;-75
2022/05/17 14:16:39;;;;;;;1.60;0.90;;;;;;;;;;4377993;32;20100;-74
2022/05/17 14:19:05;;;;;;;1.10;0.65;;;;;;;;;;4391347;32;20178;-74
2022/05/17 14:21:33;;;;;;;3.10;1.50;;;;;;;;;;4377581;32;20081;-74
2022/05/17 14:23:59;;;;;;;2.22;0.95;;;;;;;;;;4378170;32;20089;-75
2022/05/17 14:26:26;;;;;;;1.92;0.82;;;;;;;;;;4364709;32;20089;-74
2022/05/17 14:28:53;;;;;;;2.05;1.00;;;;;;;;;;4364471;32;20133;-74
2022/05/17 14:31:26;;;;;;;2.67;1.00;;;;;;;;;;4391447;32;20090;-74
2022/05/17 14:33:54;;;;;;;2.70;1.00;;;;;;;;;;4391695;32;20068;-75
2022/05/17 14:36:24;;;;;;;1.50;0.77;;;;;;;;;;4365194;32;20579;-74
2022/05/17 14:38:51;;;;;;;0.70;0.70;;;;;;;;;;4377093;32;20522;-74
2022/05/17 14:41:17;;;;;;;2.50;0.65;;;;;;;;;;4377467;32;20094;-73
2022/05/17 14:43:45;;;;;;;1.70;0.70;;;;;;;;;;4365396;32;20132;-74
2022/05/17 14:46:18;;;;;;;2.87;0.80;;;;;;;;;;4391514;32;20076;-74
2022/05/17 14:48:45;;;;;;;4.60;0.90;;;;;;;;;;4391695;32;20081;-74
2022/05/17 14:51:12;;;;;;;1.98;0.70;;;;;;;;;;4379431;32;20069;-74
2022/05/17 14:53:42;;;;;;;2.03;0.80;;;;;;;;;;4368337;32;20167;-74
2022/05/17 14:56:09;;;;;;;1.90;0.90;;;;;;;;;;4367841;32;20072;-75
2022/05/17 14:58:36;;;;;;;1.87;0.70;;;;;;;;;;4368249;32;20100;-74
2022/05/17 15:01:04;;;;;;;3.17;0.60;;;;;;;;;;4368385;32;20157;-73
2022/05/17 15:03:39;;;;;;;1.48;0.82;;;;;;;;;;4367917;32;20103;-74
2022/05/17 15:06:05;;;;;;;1.75;0.82;;;;;;;;;;4379763;32;20073;-74
2022/05/17 15:08:33;;;;;;;4.10;0.80;;;;;;;;;;4380167;32;20097;-74
2022/05/17 15:11:00;;;;;;;2.08;0.80;;;;;;;;;;4379991;32;20093;-73
2022/05/17 15:13:27;;;;;;;1.33;0.80;;;;;;;;;;4380056;32;20080;-74
2022/05/17 15:15:54;;;;;;;1.98;0.55;;;;;;;;;;4367293;32;20161;-74
2022/05/17 15:18:23;;;;;;;2.70;0.75;;;;;;;;;;4379888;32;20091;-75
2022/05/17 15:20:52;;;;;;;2.08;1.00;;;;;;;;;;4367520;32;20448;-75
2022/05/17 15:23:20;;;;;;;1.87;0.50;;;;;;;;;;4367378;32;20096;-74
2022/05/17 15:25:48;;;;;;;1.08;0.73;;;;;;;;;;4393998;32;20153;-74
2022/05/17 15:28:14;;;;;;;2.75;0.82;;;;;;;;;;4367216;32;20098;-75
2022/05/17 15:30:41;;;;;;;1.67;0.68;;;;;;;;;;4393533;32;20461;-74
2022/05/17 15:33:10;;;;;;;1.20;0.62;;;;;;;;;;4368042;32;20081;-74
2022/05/17 15:35:39;;;;;;;0.60;0.43;;;;;;;;;;4355590;32;20463;-74
2022/05/17 15:38:11;;;;;;;1.42;0.95;;;;;;;;;;4380379;32;20077;-74
2022/05/17 15:40:37;;;;;;;2.87;0.88;;;;;;;;;;4354982;32;20097;-75